WZZ4319 LROP-LIMF
Flight info
| Callsign | WZZ4319 |
|---|---|
| Flight time | 2h 10m |
| Altitude | 34000 |
| Route | POLUN1K/08L POLUN DCT ANASA DCT SOMUN DCT ETOBI DCT LOS DCT BAXON DCT LURUT DCT LUPOS M859 GEN |
| Aircraft | A20N/M-SDE2E3FGHIRWXY/LB1 |
Departure
| Time | 2026-05-08 18:34 |
|---|---|
| Airport | Bucharest Henri Coandă International Airport (LROP) |
Arrival
| Time | 2026-05-08 20:45 |
|---|---|
| Airport | Turin Airport (LIMF) |
| Time | Latitude | Longitude | Altitude | Speed | Heading |
|---|---|---|---|---|---|
| 2026-05-08 18:34 | 44.58642 | 26.17225 | 1757 ft | 254 kts | 86° |
| 2026-05-08 18:34 | 44.58782 | 26.19713 | 2490 ft | 259 kts | 88° |
| 2026-05-08 18:34 | 44.58879 | 26.22243 | 3856 ft | 261 kts | 88° |
| 2026-05-08 18:35 | 44.58964 | 26.24820 | 5058 ft | 268 kts | 87° |
| 2026-05-08 18:35 | 44.59078 | 26.27451 | 5952 ft | 272 kts | 86° |
| 2026-05-08 18:35 | 44.58922 | 26.30092 | 6577 ft | 275 kts | 108° |
| 2026-05-08 18:35 | 44.57941 | 26.32387 | 7161 ft | 279 kts | 135° |
| 2026-05-08 18:36 | 44.56305 | 26.33827 | 7752 ft | 282 kts | 162° |
| 2026-05-08 18:36 | 44.54371 | 26.34283 | 8356 ft | 284 kts | 175° |
| 2026-05-08 18:36 | 44.52383 | 26.34451 | 8971 ft | 287 kts | 177° |
| 2026-05-08 18:36 | 44.50750 | 26.34565 | 9481 ft | 288 kts | 177° |
| 2026-05-08 18:37 | 44.50266 | 26.34603 | 9631 ft | 289 kts | 176° |
| 2026-05-08 18:37 | 44.48254 | 26.34794 | 10220 ft | 291 kts | 175° |
| 2026-05-08 18:37 | 44.46238 | 26.35034 | 10798 ft | 290 kts | 174° |
| 2026-05-08 18:37 | 44.44226 | 26.35306 | 11390 ft | 291 kts | 173° |
| 2026-05-08 18:38 | 44.42205 | 26.35597 | 11988 ft | 293 kts | 173° |
| 2026-05-08 18:38 | 44.40170 | 26.35873 | 12595 ft | 295 kts | 178° |
| 2026-05-08 18:38 | 44.38156 | 26.35397 | 13214 ft | 297 kts | 201° |
| 2026-05-08 18:38 | 44.36445 | 26.33779 | 13849 ft | 302 kts | 225° |
| 2026-05-08 18:39 | 44.35343 | 26.31272 | 14411 ft | 308 kts | 248° |
| 2026-05-08 18:39 | 44.34741 | 26.28378 | 14996 ft | 312 kts | 254° |
| 2026-05-08 18:39 | 44.34251 | 26.25409 | 15587 ft | 315 kts | 255° |
| 2026-05-08 18:39 | 44.33751 | 26.22412 | 16188 ft | 317 kts | 254° |
| 2026-05-08 18:40 | 44.33208 | 26.19414 | 16799 ft | 320 kts | 252° |
| 2026-05-08 18:40 | 44.32678 | 26.16382 | 17422 ft | 324 kts | 261° |
| 2026-05-08 18:40 | 44.32623 | 26.13213 | 18065 ft | 329 kts | 269° |
| 2026-05-08 18:40 | 44.32698 | 26.10008 | 18650 ft | 332 kts | 270° |
| 2026-05-08 18:41 | 44.32788 | 26.06779 | 19212 ft | 334 kts | 269° |
| 2026-05-08 18:41 | 44.32862 | 26.03528 | 19786 ft | 336 kts | 269° |
| 2026-05-08 18:41 | 44.32917 | 26.00250 | 20372 ft | 339 kts | 269° |
| 2026-05-08 18:41 | 44.32957 | 25.96955 | 20972 ft | 341 kts | 269° |
| 2026-05-08 18:42 | 44.32989 | 25.93629 | 21583 ft | 344 kts | 269° |
| 2026-05-08 18:42 | 44.33018 | 25.90279 | 22204 ft | 347 kts | 269° |
| 2026-05-08 18:42 | 44.33064 | 25.86895 | 22841 ft | 350 kts | 269° |
| 2026-05-08 18:42 | 44.33097 | 25.83484 | 23491 ft | 353 kts | 269° |
| 2026-05-08 18:43 | 44.33120 | 25.80040 | 24053 ft | 356 kts | 269° |
| 2026-05-08 18:43 | 44.33140 | 25.76567 | 24608 ft | 359 kts | 269° |
| 2026-05-08 18:43 | 44.33162 | 25.73069 | 25174 ft | 362 kts | 269° |
| 2026-05-08 18:43 | 44.33186 | 25.69537 | 25755 ft | 365 kts | 269° |
| 2026-05-08 18:44 | 44.33210 | 25.65966 | 26348 ft | 369 kts | 269° |
| 2026-05-08 18:44 | 44.33234 | 25.62363 | 26952 ft | 373 kts | 269° |
| 2026-05-08 18:44 | 44.33256 | 25.58730 | 27569 ft | 376 kts | 269° |
| 2026-05-08 18:44 | 44.33274 | 25.55068 | 28199 ft | 378 kts | 268° |
| 2026-05-08 18:45 | 44.33291 | 25.51386 | 28846 ft | 380 kts | 268° |
| 2026-05-08 18:45 | 44.33306 | 25.47686 | 29505 ft | 381 kts | 268° |
| 2026-05-08 18:45 | 44.33321 | 25.44043 | 30151 ft | 381 kts | 268° |
| 2026-05-08 18:45 | 44.33336 | 25.40342 | 30731 ft | 380 kts | 268° |
| 2026-05-08 18:46 | 44.33350 | 25.36668 | 31321 ft | 378 kts | 268° |
| 2026-05-08 18:46 | 44.33364 | 25.33004 | 31925 ft | 376 kts | 268° |
| 2026-05-08 18:46 | 44.33377 | 25.29368 | 32537 ft | 373 kts | 268° |
| 2026-05-08 18:46 | 44.33388 | 25.25756 | 33165 ft | 370 kts | 267° |
| 2026-05-08 18:47 | 44.33398 | 25.22177 | 33751 ft | 369 kts | 267° |
| 2026-05-08 18:47 | 44.33406 | 25.18590 | 33952 ft | 370 kts | 267° |
| 2026-05-08 18:47 | 44.33420 | 25.11427 | 33987 ft | 368 kts | 267° |
| 2026-05-08 18:48 | 44.33431 | 25.04278 | 33986 ft | 374 kts | 267° |
| 2026-05-08 18:48 | 44.33433 | 25.00575 | 33986 ft | 388 kts | 267° |
| 2026-05-08 18:48 | 44.33434 | 24.96748 | 33983 ft | 401 kts | 267° |
| 2026-05-08 18:49 | 44.33433 | 24.92789 | 33982 ft | 413 kts | 267° |
| 2026-05-08 18:49 | 44.33433 | 24.88713 | 33984 ft | 426 kts | 267° |
| 2026-05-08 18:49 | 44.33431 | 24.84525 | 33984 ft | 437 kts | 267° |
| 2026-05-08 18:49 | 44.33429 | 24.80223 | 33981 ft | 448 kts | 267° |
| 2026-05-08 18:50 | 44.33421 | 24.71351 | 33986 ft | 460 kts | 267° |
| 2026-05-08 18:50 | 44.33411 | 24.62425 | 33985 ft | 460 kts | 267° |
| 2026-05-08 18:51 | 44.33395 | 24.53563 | 33987 ft | 460 kts | 267° |
| 2026-05-08 18:51 | 44.33387 | 24.44984 | 33985 ft | 460 kts | 267° |
| 2026-05-08 18:52 | 44.33352 | 24.36041 | 33987 ft | 460 kts | 266° |
| 2026-05-08 18:52 | 44.33301 | 24.27110 | 33999 ft | 460 kts | 266° |
| 2026-05-08 18:53 | 44.33251 | 24.18174 | 34009 ft | 460 kts | 266° |
| 2026-05-08 18:53 | 44.33201 | 24.09226 | 34014 ft | 460 kts | 266° |
| 2026-05-08 18:54 | 44.33139 | 24.00280 | 34021 ft | 461 kts | 266° |
| 2026-05-08 18:54 | 44.33072 | 23.91328 | 34020 ft | 461 kts | 266° |
| 2026-05-08 18:55 | 44.32962 | 23.77896 | 34022 ft | 461 kts | 266° |
| 2026-05-08 18:56 | 44.32875 | 23.68943 | 34015 ft | 461 kts | 266° |
| 2026-05-08 18:56 | 44.32783 | 23.60000 | 34012 ft | 461 kts | 266° |
| 2026-05-08 18:57 | 44.32685 | 23.51049 | 34004 ft | 461 kts | 266° |
| 2026-05-08 18:57 | 44.32627 | 23.46005 | 34001 ft | 460 kts | 266° |
| 2026-05-08 18:58 | 44.32518 | 23.37076 | 34002 ft | 460 kts | 266° |
| 2026-05-08 18:58 | 44.32404 | 23.28132 | 34000 ft | 460 kts | 266° |
| 2026-05-08 18:59 | 44.32280 | 23.19202 | 33998 ft | 460 kts | 266° |
| 2026-05-08 18:59 | 44.32150 | 23.10273 | 34000 ft | 459 kts | 266° |
| 2026-05-08 19:00 | 44.32036 | 23.02863 | 33999 ft | 459 kts | 266° |
| 2026-05-08 19:00 | 44.31869 | 22.92443 | 34000 ft | 459 kts | 266° |
| 2026-05-08 19:01 | 44.31717 | 22.83538 | 33998 ft | 459 kts | 266° |
| 2026-05-08 19:01 | 44.31560 | 22.74686 | 33996 ft | 459 kts | 265° |
| 2026-05-08 19:02 | 44.31397 | 22.65779 | 33996 ft | 459 kts | 265° |
| 2026-05-08 19:02 | 44.31237 | 22.56820 | 33993 ft | 459 kts | 267° |
| 2026-05-08 19:03 | 44.31783 | 22.47934 | 34001 ft | 460 kts | 275° |
| 2026-05-08 19:03 | 44.32653 | 22.39082 | 33999 ft | 460 kts | 276° |
| 2026-05-08 19:04 | 44.33543 | 22.30286 | 34005 ft | 460 kts | 276° |
| 2026-05-08 19:04 | 44.34422 | 22.21374 | 34006 ft | 460 kts | 276° |
| 2026-05-08 19:05 | 44.35275 | 22.12525 | 34009 ft | 460 kts | 276° |
| 2026-05-08 19:05 | 44.36110 | 22.03735 | 34010 ft | 460 kts | 276° |
| 2026-05-08 19:06 | 44.36947 | 21.94817 | 34011 ft | 459 kts | 275° |
| 2026-05-08 19:06 | 44.37764 | 21.86019 | 34015 ft | 459 kts | 275° |
| 2026-05-08 19:07 | 44.38576 | 21.77170 | 34012 ft | 459 kts | 275° |
| 2026-05-08 19:07 | 44.39383 | 21.68315 | 34010 ft | 459 kts | 275° |
| 2026-05-08 19:08 | 44.40182 | 21.59450 | 34010 ft | 459 kts | 275° |
| 2026-05-08 19:08 | 44.40973 | 21.50591 | 34008 ft | 459 kts | 275° |
| 2026-05-08 19:09 | 44.41755 | 21.41752 | 34010 ft | 459 kts | 275° |
| 2026-05-08 19:09 | 44.42401 | 21.34383 | 34005 ft | 459 kts | 275° |
| 2026-05-08 19:10 | 44.43169 | 21.25536 | 34004 ft | 458 kts | 275° |
| 2026-05-08 19:10 | 44.43931 | 21.16682 | 33999 ft | 458 kts | 275° |
| 2026-05-08 19:11 | 44.44685 | 21.07829 | 33999 ft | 458 kts | 275° |
| 2026-05-08 19:11 | 44.45433 | 20.98968 | 34001 ft | 458 kts | 275° |
| 2026-05-08 19:12 | 44.46169 | 20.90142 | 34003 ft | 458 kts | 275° |
| 2026-05-08 19:12 | 44.46903 | 20.81294 | 34005 ft | 457 kts | 275° |
| 2026-05-08 19:13 | 44.47626 | 20.72494 | 34006 ft | 457 kts | 274° |
| 2026-05-08 19:13 | 44.48337 | 20.63753 | 34008 ft | 456 kts | 274° |
| 2026-05-08 19:14 | 44.49047 | 20.54938 | 34011 ft | 455 kts | 274° |
| 2026-05-08 19:14 | 44.49746 | 20.46146 | 34010 ft | 454 kts | 274° |
| 2026-05-08 19:15 | 44.50437 | 20.37359 | 34012 ft | 454 kts | 274° |
| 2026-05-08 19:15 | 44.51121 | 20.28562 | 34017 ft | 454 kts | 274° |
| 2026-05-08 19:16 | 44.51798 | 20.19779 | 34014 ft | 454 kts | 274° |
| 2026-05-08 19:16 | 44.52465 | 20.11049 | 34012 ft | 453 kts | 274° |
| 2026-05-08 19:17 | 44.53133 | 20.02209 | 34011 ft | 453 kts | 273° |
| 2026-05-08 19:17 | 44.53785 | 19.93501 | 34013 ft | 453 kts | 273° |
| 2026-05-08 19:18 | 44.54432 | 19.84741 | 34017 ft | 452 kts | 273° |
| 2026-05-08 19:18 | 44.55069 | 19.76027 | 34017 ft | 451 kts | 273° |
| 2026-05-08 19:19 | 44.55701 | 19.67278 | 34015 ft | 451 kts | 273° |
| 2026-05-08 19:19 | 44.56326 | 19.58532 | 34014 ft | 450 kts | 273° |
| 2026-05-08 19:20 | 44.56945 | 19.49792 | 34021 ft | 451 kts | 273° |
| 2026-05-08 19:20 | 44.57555 | 19.41120 | 34016 ft | 451 kts | 273° |
| 2026-05-08 19:21 | 44.58161 | 19.32376 | 34022 ft | 451 kts | 273° |
| 2026-05-08 19:21 | 44.58762 | 19.23612 | 34025 ft | 451 kts | 273° |
| 2026-05-08 19:22 | 44.59360 | 19.14838 | 34028 ft | 451 kts | 273° |
| 2026-05-08 19:22 | 44.59693 | 19.06061 | 34030 ft | 450 kts | 267° |
| 2026-05-08 19:23 | 44.59694 | 18.97798 | 34034 ft | 450 kts | 267° |
| 2026-05-08 19:23 | 44.59721 | 18.89009 | 34042 ft | 451 kts | 268° |
| 2026-05-08 19:24 | 44.59763 | 18.80214 | 34043 ft | 451 kts | 268° |
| 2026-05-08 19:24 | 44.59800 | 18.71424 | 34025 ft | 451 kts | 268° |
| 2026-05-08 19:25 | 44.59831 | 18.62629 | 34048 ft | 450 kts | 268° |
| 2026-05-08 19:25 | 44.59853 | 18.53842 | 34040 ft | 450 kts | 267° |
| 2026-05-08 19:26 | 44.59866 | 18.45068 | 34040 ft | 450 kts | 267° |
| 2026-05-08 19:26 | 44.59872 | 18.36286 | 34046 ft | 450 kts | 267° |
| 2026-05-08 19:27 | 44.59871 | 18.27576 | 34035 ft | 449 kts | 267° |
| 2026-05-08 19:27 | 44.59862 | 18.18816 | 34025 ft | 449 kts | 267° |
| 2026-05-08 19:28 | 44.59845 | 18.10054 | 34029 ft | 449 kts | 267° |
| 2026-05-08 19:28 | 44.59822 | 18.01282 | 34044 ft | 449 kts | 267° |
| 2026-05-08 19:29 | 44.59792 | 17.92509 | 34045 ft | 450 kts | 267° |
| 2026-05-08 19:29 | 44.59756 | 17.83735 | 34037 ft | 450 kts | 267° |
| 2026-05-08 19:30 | 44.59712 | 17.74962 | 34041 ft | 450 kts | 266° |
| 2026-05-08 19:30 | 44.59662 | 17.66180 | 34053 ft | 450 kts | 266° |
| 2026-05-08 19:31 | 44.59606 | 17.57403 | 34048 ft | 450 kts | 266° |
| 2026-05-08 19:31 | 44.59541 | 17.48622 | 34058 ft | 450 kts | 266° |
| 2026-05-08 19:32 | 44.59469 | 17.39833 | 34056 ft | 450 kts | 266° |
| 2026-05-08 19:32 | 44.59391 | 17.31053 | 34056 ft | 450 kts | 266° |
| 2026-05-08 19:33 | 44.59303 | 17.22292 | 34060 ft | 449 kts | 266° |
| 2026-05-08 19:33 | 44.59209 | 17.13531 | 34055 ft | 449 kts | 266° |
| 2026-05-08 19:34 | 44.59109 | 17.04782 | 34057 ft | 448 kts | 266° |
| 2026-05-08 19:34 | 44.59004 | 16.96048 | 34060 ft | 447 kts | 266° |
| 2026-05-08 19:35 | 44.58892 | 16.87329 | 34057 ft | 447 kts | 266° |
| 2026-05-08 19:35 | 44.58751 | 16.78606 | 34063 ft | 447 kts | 266° |
| 2026-05-08 19:36 | 44.58608 | 16.69884 | 34065 ft | 447 kts | 266° |
| 2026-05-08 19:36 | 44.58459 | 16.61164 | 34069 ft | 447 kts | 266° |
| 2026-05-08 19:37 | 44.58303 | 16.52443 | 34067 ft | 447 kts | 266° |
| 2026-05-08 19:37 | 44.58140 | 16.43726 | 34065 ft | 447 kts | 266° |
| 2026-05-08 19:38 | 44.57970 | 16.35015 | 34071 ft | 447 kts | 266° |
| 2026-05-08 19:38 | 44.57793 | 16.26302 | 34071 ft | 446 kts | 266° |
| 2026-05-08 19:39 | 44.57611 | 16.17667 | 34072 ft | 446 kts | 266° |
| 2026-05-08 19:39 | 44.57422 | 16.08978 | 34069 ft | 446 kts | 266° |
| 2026-05-08 19:40 | 44.57227 | 16.00304 | 34070 ft | 445 kts | 266° |
| 2026-05-08 19:40 | 44.57025 | 15.91633 | 34068 ft | 444 kts | 266° |
| 2026-05-08 19:41 | 44.56817 | 15.82998 | 34070 ft | 443 kts | 266° |
| 2026-05-08 19:41 | 44.56602 | 15.74374 | 34070 ft | 442 kts | 266° |
| 2026-05-08 19:42 | 44.56383 | 15.65776 | 34068 ft | 440 kts | 266° |
| 2026-05-08 19:42 | 44.56158 | 15.57210 | 34075 ft | 439 kts | 266° |
| 2026-05-08 19:43 | 44.55926 | 15.48659 | 34071 ft | 438 kts | 266° |
| 2026-05-08 19:43 | 44.55689 | 15.40142 | 34069 ft | 437 kts | 266° |
| 2026-05-08 19:44 | 44.55446 | 15.31642 | 34070 ft | 436 kts | 266° |
| 2026-05-08 19:44 | 44.55198 | 15.23163 | 34065 ft | 435 kts | 266° |
| 2026-05-08 19:45 | 44.54986 | 15.16085 | 34061 ft | 434 kts | 266° |
| 2026-05-08 19:45 | 44.54684 | 15.06279 | 34060 ft | 433 kts | 266° |
| 2026-05-08 19:46 | 44.54418 | 14.97861 | 34050 ft | 432 kts | 266° |
| 2026-05-08 19:46 | 44.54007 | 14.85219 | 34054 ft | 430 kts | 266° |
| 2026-05-08 19:47 | 44.53731 | 14.76912 | 34056 ft | 429 kts | 266° |
| 2026-05-08 19:47 | 44.53448 | 14.68574 | 34051 ft | 428 kts | 266° |
| 2026-05-08 19:48 | 44.53160 | 14.60269 | 34056 ft | 426 kts | 267° |
| 2026-05-08 19:48 | 44.52868 | 14.51988 | 34055 ft | 425 kts | 267° |
| 2026-05-08 19:49 | 44.52364 | 14.43746 | 34053 ft | 424 kts | 262° |
| 2026-05-08 19:49 | 44.51479 | 14.35582 | 34060 ft | 423 kts | 262° |
| 2026-05-08 19:50 | 44.50595 | 14.27457 | 34058 ft | 421 kts | 262° |
| 2026-05-08 19:50 | 44.49720 | 14.19344 | 34056 ft | 420 kts | 262° |
| 2026-05-08 19:51 | 44.48848 | 14.11266 | 34058 ft | 419 kts | 262° |
| 2026-05-08 19:51 | 44.47973 | 14.03212 | 34063 ft | 418 kts | 262° |
| 2026-05-08 19:52 | 44.47095 | 13.95170 | 34065 ft | 417 kts | 262° |
| 2026-05-08 19:52 | 44.46213 | 13.87143 | 34062 ft | 416 kts | 262° |
| 2026-05-08 19:53 | 44.45328 | 13.79146 | 34060 ft | 416 kts | 262° |
| 2026-05-08 19:53 | 44.44437 | 13.71157 | 34068 ft | 415 kts | 263° |
| 2026-05-08 19:54 | 44.43694 | 13.64535 | 34061 ft | 414 kts | 263° |
| 2026-05-08 19:54 | 44.42649 | 13.55277 | 34065 ft | 414 kts | 263° |
| 2026-05-08 19:55 | 44.41828 | 13.47335 | 34055 ft | 412 kts | 267° |
| 2026-05-08 19:55 | 44.41865 | 13.39365 | 34058 ft | 410 kts | 275° |
| 2026-05-08 19:56 | 44.42259 | 13.32709 | 34062 ft | 410 kts | 276° |
| 2026-05-08 19:56 | 44.42727 | 13.24819 | 34061 ft | 410 kts | 275° |
| 2026-05-08 19:57 | 44.43163 | 13.16823 | 34062 ft | 409 kts | 275° |
| 2026-05-08 19:57 | 44.43573 | 13.08929 | 34062 ft | 409 kts | 275° |
| 2026-05-08 19:58 | 44.43978 | 13.00938 | 34070 ft | 409 kts | 275° |
| 2026-05-08 19:58 | 44.44371 | 12.93046 | 34063 ft | 409 kts | 275° |
| 2026-05-08 19:59 | 44.44762 | 12.85098 | 34068 ft | 410 kts | 275° |
| 2026-05-08 19:59 | 44.45148 | 12.77145 | 34063 ft | 410 kts | 275° |
| 2026-05-08 20:00 | 44.45528 | 12.69192 | 34060 ft | 409 kts | 275° |
| 2026-05-08 20:00 | 44.45902 | 12.61239 | 34063 ft | 410 kts | 275° |
| 2026-05-08 20:01 | 44.46271 | 12.53280 | 34060 ft | 410 kts | 275° |
| 2026-05-08 20:01 | 44.46636 | 12.45328 | 34062 ft | 410 kts | 275° |
| 2026-05-08 20:02 | 44.46995 | 12.37359 | 34066 ft | 410 kts | 275° |
| 2026-05-08 20:02 | 44.47348 | 12.29408 | 34057 ft | 409 kts | 275° |
| 2026-05-08 20:03 | 44.47696 | 12.21447 | 34068 ft | 409 kts | 275° |
| 2026-05-08 20:03 | 44.48037 | 12.13483 | 34068 ft | 409 kts | 274° |
| 2026-05-08 20:04 | 44.48374 | 12.05529 | 34071 ft | 410 kts | 274° |
| 2026-05-08 20:04 | 44.48705 | 11.97568 | 34074 ft | 410 kts | 274° |
| 2026-05-08 20:05 | 44.49031 | 11.89593 | 34085 ft | 410 kts | 274° |
| 2026-05-08 20:05 | 44.49351 | 11.81620 | 34088 ft | 410 kts | 274° |
| 2026-05-08 20:06 | 44.49666 | 11.73637 | 34088 ft | 410 kts | 274° |
| 2026-05-08 20:06 | 44.49976 | 11.65649 | 34088 ft | 411 kts | 274° |
| 2026-05-08 20:07 | 44.50278 | 11.57717 | 34087 ft | 411 kts | 274° |
| 2026-05-08 20:07 | 44.50577 | 11.49720 | 34080 ft | 411 kts | 274° |
| 2026-05-08 20:08 | 44.50870 | 11.41721 | 34074 ft | 411 kts | 274° |
| 2026-05-08 20:08 | 44.51158 | 11.33717 | 34072 ft | 411 kts | 273° |
| 2026-05-08 20:09 | 44.51440 | 11.25699 | 33929 ft | 412 kts | 273° |
| 2026-05-08 20:09 | 44.51580 | 11.21691 | 33492 ft | 413 kts | 273° |
| 2026-05-08 20:09 | 44.51718 | 11.17662 | 32865 ft | 415 kts | 273° |
| 2026-05-08 20:10 | 44.51855 | 11.13614 | 32247 ft | 417 kts | 273° |
| 2026-05-08 20:10 | 44.51991 | 11.09543 | 31645 ft | 420 kts | 273° |
| 2026-05-08 20:10 | 44.52127 | 11.05430 | 31054 ft | 423 kts | 273° |
| 2026-05-08 20:10 | 44.52263 | 11.01312 | 30479 ft | 422 kts | 273° |
| 2026-05-08 20:11 | 44.52316 | 10.97223 | 29863 ft | 418 kts | 270° |
| 2026-05-08 20:11 | 44.52187 | 10.93165 | 29207 ft | 416 kts | 268° |
| 2026-05-08 20:11 | 44.52013 | 10.89121 | 28582 ft | 415 kts | 267° |
| 2026-05-08 20:11 | 44.51831 | 10.85097 | 28144 ft | 414 kts | 267° |
| 2026-05-08 20:12 | 44.51645 | 10.81070 | 27755 ft | 414 kts | 267° |
| 2026-05-08 20:12 | 44.51455 | 10.77055 | 27370 ft | 413 kts | 267° |
| 2026-05-08 20:12 | 44.51265 | 10.73039 | 26986 ft | 412 kts | 267° |
| 2026-05-08 20:12 | 44.51074 | 10.69040 | 26614 ft | 412 kts | 266° |
| 2026-05-08 20:13 | 44.50882 | 10.65046 | 26233 ft | 411 kts | 266° |
| 2026-05-08 20:13 | 44.50688 | 10.61048 | 25863 ft | 410 kts | 266° |
| 2026-05-08 20:13 | 44.50495 | 10.57073 | 25497 ft | 409 kts | 266° |
| 2026-05-08 20:13 | 44.50303 | 10.53104 | 25133 ft | 409 kts | 266° |
| 2026-05-08 20:14 | 44.50113 | 10.49128 | 24772 ft | 408 kts | 266° |
| 2026-05-08 20:14 | 44.49925 | 10.45174 | 24415 ft | 408 kts | 266° |
| 2026-05-08 20:14 | 44.49735 | 10.41207 | 24069 ft | 407 kts | 266° |
| 2026-05-08 20:14 | 44.49545 | 10.37263 | 23722 ft | 406 kts | 266° |
| 2026-05-08 20:15 | 44.49354 | 10.33326 | 23310 ft | 405 kts | 266° |
| 2026-05-08 20:15 | 44.49239 | 10.30996 | 23066 ft | 404 kts | 266° |
| 2026-05-08 20:15 | 44.49128 | 10.28780 | 22839 ft | 403 kts | 266° |
| 2026-05-08 20:15 | 44.48934 | 10.24878 | 22429 ft | 401 kts | 266° |
| 2026-05-08 20:16 | 44.48740 | 10.20994 | 22031 ft | 399 kts | 266° |
| 2026-05-08 20:16 | 44.48544 | 10.17129 | 21634 ft | 398 kts | 266° |
| 2026-05-08 20:16 | 44.48348 | 10.13329 | 21247 ft | 396 kts | 266° |
| 2026-05-08 20:16 | 44.48147 | 10.09495 | 20861 ft | 394 kts | 266° |
| 2026-05-08 20:17 | 44.47943 | 10.05673 | 20483 ft | 393 kts | 266° |
| 2026-05-08 20:17 | 44.47741 | 10.01867 | 20106 ft | 392 kts | 266° |
| 2026-05-08 20:17 | 44.47537 | 9.98064 | 19733 ft | 390 kts | 266° |
| 2026-05-08 20:17 | 44.47334 | 9.94287 | 19371 ft | 389 kts | 265° |
| 2026-05-08 20:18 | 44.47132 | 9.90531 | 19011 ft | 387 kts | 265° |
| 2026-05-08 20:18 | 44.46928 | 9.86770 | 18649 ft | 386 kts | 265° |
| 2026-05-08 20:18 | 44.46725 | 9.83030 | 18300 ft | 385 kts | 265° |
| 2026-05-08 20:18 | 44.46523 | 9.79304 | 18100 ft | 383 kts | 265° |
| 2026-05-08 20:19 | 44.46318 | 9.75584 | 18068 ft | 384 kts | 265° |
| 2026-05-08 20:19 | 44.46111 | 9.71859 | 18068 ft | 384 kts | 265° |
| 2026-05-08 20:19 | 44.45904 | 9.68129 | 18066 ft | 384 kts | 265° |
| 2026-05-08 20:19 | 44.45698 | 9.64408 | 18066 ft | 384 kts | 265° |
| 2026-05-08 20:20 | 44.45490 | 9.60678 | 18063 ft | 384 kts | 265° |
| 2026-05-08 20:20 | 44.45283 | 9.56951 | 18066 ft | 384 kts | 265° |
| 2026-05-08 20:20 | 44.45075 | 9.53222 | 18065 ft | 384 kts | 265° |
| 2026-05-08 20:20 | 44.44866 | 9.49495 | 18067 ft | 384 kts | 265° |
| 2026-05-08 20:21 | 44.44655 | 9.45767 | 18064 ft | 384 kts | 265° |
| 2026-05-08 20:21 | 44.44443 | 9.42043 | 18064 ft | 384 kts | 265° |
| 2026-05-08 20:21 | 44.44229 | 9.38314 | 18064 ft | 384 kts | 265° |
| 2026-05-08 20:21 | 44.44013 | 9.34586 | 18065 ft | 384 kts | 265° |
| 2026-05-08 20:22 | 44.43796 | 9.30862 | 18065 ft | 384 kts | 265° |
| 2026-05-08 20:22 | 44.43577 | 9.27139 | 18061 ft | 384 kts | 265° |
| 2026-05-08 20:22 | 44.43359 | 9.23425 | 18057 ft | 383 kts | 265° |
| 2026-05-08 20:22 | 44.43213 | 9.20955 | 18056 ft | 384 kts | 265° |
| 2026-05-08 20:23 | 44.42917 | 9.15981 | 18058 ft | 384 kts | 264° |
| 2026-05-08 20:23 | 44.42680 | 9.12260 | 18054 ft | 383 kts | 262° |
| 2026-05-08 20:23 | 44.42141 | 9.08618 | 18050 ft | 384 kts | 253° |
| 2026-05-08 20:23 | 44.41166 | 9.05142 | 18050 ft | 385 kts | 243° |
| 2026-05-08 20:24 | 44.39824 | 9.01904 | 18048 ft | 385 kts | 238° |
| 2026-05-08 20:24 | 44.38405 | 8.98732 | 18046 ft | 385 kts | 238° |
| 2026-05-08 20:24 | 44.36995 | 8.95555 | 18051 ft | 385 kts | 238° |
| 2026-05-08 20:24 | 44.35607 | 8.92363 | 18046 ft | 385 kts | 239° |
| 2026-05-08 20:25 | 44.34234 | 8.89150 | 18049 ft | 384 kts | 239° |
| 2026-05-08 20:25 | 44.32876 | 8.85933 | 18047 ft | 385 kts | 240° |
| 2026-05-08 20:25 | 44.31522 | 8.82715 | 18045 ft | 381 kts | 240° |
| 2026-05-08 20:25 | 44.30278 | 8.79629 | 18043 ft | 359 kts | 246° |
| 2026-05-08 20:26 | 44.29692 | 8.76367 | 17988 ft | 338 kts | 267° |
| 2026-05-08 20:26 | 44.29964 | 8.73188 | 17659 ft | 328 kts | 288° |
| 2026-05-08 20:26 | 44.31014 | 8.70413 | 17264 ft | 321 kts | 303° |
| 2026-05-08 20:26 | 44.32275 | 8.67874 | 16883 ft | 315 kts | 304° |
| 2026-05-08 20:27 | 44.33526 | 8.65376 | 16499 ft | 314 kts | 304° |
| 2026-05-08 20:27 | 44.34779 | 8.62880 | 16123 ft | 313 kts | 304° |
| 2026-05-08 20:27 | 44.36025 | 8.60401 | 15741 ft | 310 kts | 303° |
| 2026-05-08 20:27 | 44.37271 | 8.57926 | 15373 ft | 310 kts | 303° |
| 2026-05-08 20:28 | 44.38506 | 8.55476 | 15006 ft | 308 kts | 303° |
| 2026-05-08 20:28 | 44.39736 | 8.53037 | 14645 ft | 306 kts | 303° |
| 2026-05-08 20:28 | 44.40962 | 8.50606 | 14290 ft | 305 kts | 303° |
| 2026-05-08 20:28 | 44.42183 | 8.48180 | 13936 ft | 304 kts | 303° |
| 2026-05-08 20:29 | 44.43395 | 8.45772 | 13548 ft | 302 kts | 303° |
| 2026-05-08 20:29 | 44.44601 | 8.43376 | 13150 ft | 301 kts | 303° |
| 2026-05-08 20:29 | 44.45806 | 8.40989 | 12763 ft | 298 kts | 303° |
| 2026-05-08 20:29 | 44.47002 | 8.38619 | 12381 ft | 298 kts | 303° |
| 2026-05-08 20:30 | 44.48191 | 8.36263 | 11995 ft | 296 kts | 303° |
| 2026-05-08 20:30 | 44.49376 | 8.33916 | 11631 ft | 294 kts | 303° |
| 2026-05-08 20:30 | 44.50558 | 8.31573 | 11260 ft | 294 kts | 303° |
| 2026-05-08 20:30 | 44.51730 | 8.29253 | 10919 ft | 291 kts | 303° |
| 2026-05-08 20:31 | 44.52507 | 8.27713 | 10761 ft | 292 kts | 303° |
| 2026-05-08 20:31 | 44.53694 | 8.25357 | 10512 ft | 291 kts | 303° |
| 2026-05-08 20:31 | 44.54852 | 8.23053 | 10271 ft | 290 kts | 303° |
| 2026-05-08 20:31 | 44.56012 | 8.20745 | 10037 ft | 288 kts | 303° |
| 2026-05-08 20:32 | 44.57168 | 8.18448 | 9790 ft | 287 kts | 303° |
| 2026-05-08 20:32 | 44.58314 | 8.16170 | 9543 ft | 283 kts | 303° |
| 2026-05-08 20:32 | 44.59430 | 8.13951 | 9274 ft | 275 kts | 303° |
| 2026-05-08 20:32 | 44.60535 | 8.11807 | 9015 ft | 267 kts | 307° |
| 2026-05-08 20:33 | 44.61749 | 8.09883 | 8758 ft | 260 kts | 312° |
| 2026-05-08 20:33 | 44.63013 | 8.08054 | 8496 ft | 263 kts | 313° |
| 2026-05-08 20:33 | 44.64275 | 8.06232 | 8255 ft | 256 kts | 313° |
| 2026-05-08 20:33 | 44.65489 | 8.04475 | 8001 ft | 246 kts | 313° |
| 2026-05-08 20:34 | 44.66688 | 8.02741 | 7748 ft | 248 kts | 313° |
| 2026-05-08 20:34 | 44.67883 | 8.01010 | 7498 ft | 246 kts | 313° |
| 2026-05-08 20:34 | 44.70255 | 7.97565 | 7012 ft | 244 kts | 313° |
| 2026-05-08 20:35 | 44.71432 | 7.95850 | 6769 ft | 244 kts | 313° |
| 2026-05-08 20:35 | 44.72605 | 7.94139 | 6528 ft | 243 kts | 313° |
| 2026-05-08 20:35 | 44.73809 | 7.92375 | 6283 ft | 267 kts | 313° |
| 2026-05-08 20:35 | 44.75105 | 7.90463 | 6030 ft | 274 kts | 313° |
| 2026-05-08 20:36 | 44.76408 | 7.88533 | 5775 ft | 273 kts | 313° |
| 2026-05-08 20:36 | 44.77712 | 7.86590 | 5523 ft | 271 kts | 313° |
| 2026-05-08 20:36 | 44.79004 | 7.84655 | 5272 ft | 271 kts | 313° |
| 2026-05-08 20:36 | 44.80291 | 7.82722 | 5022 ft | 270 kts | 313° |
| 2026-05-08 20:37 | 44.81573 | 7.80795 | 4767 ft | 269 kts | 313° |
| 2026-05-08 20:37 | 44.82847 | 7.78877 | 4511 ft | 267 kts | 313° |
| 2026-05-08 20:37 | 44.84114 | 7.76965 | 4257 ft | 266 kts | 313° |
| 2026-05-08 20:37 | 44.85372 | 7.75069 | 4042 ft | 265 kts | 313° |
| 2026-05-08 20:38 | 44.86631 | 7.73170 | 3999 ft | 265 kts | 313° |
| 2026-05-08 20:38 | 44.87887 | 7.71275 | 3996 ft | 265 kts | 313° |
| 2026-05-08 20:38 | 44.89146 | 7.69375 | 3999 ft | 265 kts | 313° |
| 2026-05-08 20:38 | 44.90409 | 7.67487 | 4000 ft | 265 kts | 316° |
| 2026-05-08 20:39 | 44.91900 | 7.66001 | 4005 ft | 264 kts | 333° |
| 2026-05-08 20:39 | 44.93555 | 7.64866 | 4006 ft | 264 kts | 334° |
| 2026-05-08 20:39 | 44.95255 | 7.63900 | 4003 ft | 264 kts | 345° |
| 2026-05-08 20:39 | 44.97032 | 7.63513 | 4004 ft | 247 kts | 358° |
| 2026-05-08 20:40 | 44.98624 | 7.63524 | 4000 ft | 212 kts | 5° |
| 2026-05-08 20:40 | 44.99996 | 7.63659 | 3999 ft | 184 kts | 4° |
| 2026-05-08 20:40 | 45.01278 | 7.63745 | 4008 ft | 184 kts | 3° |
| 2026-05-08 20:40 | 45.02530 | 7.63826 | 4010 ft | 172 kts | 3° |
| 2026-05-08 20:41 | 45.03693 | 7.63901 | 3944 ft | 167 kts | 3° |
| 2026-05-08 20:41 | 45.04176 | 7.63933 | 3853 ft | 168 kts | 3° |
| 2026-05-08 20:41 | 45.05090 | 7.63993 | 3671 ft | 167 kts | 3° |
| 2026-05-08 20:41 | 45.05860 | 7.64042 | 3527 ft | 167 kts | 3° |
| 2026-05-08 20:42 | 45.07019 | 7.64117 | 3304 ft | 166 kts | 3° |
| 2026-05-08 20:42 | 45.08173 | 7.64191 | 3079 ft | 166 kts | 3° |
| 2026-05-08 20:42 | 45.09324 | 7.64265 | 2860 ft | 165 kts | 3° |
| 2026-05-08 20:42 | 45.10466 | 7.64339 | 2632 ft | 164 kts | 3° |
| 2026-05-08 20:43 | 45.11608 | 7.64412 | 2421 ft | 164 kts | 3° |
| 2026-05-08 20:43 | 45.12747 | 7.64485 | 2188 ft | 164 kts | 3° |
| 2026-05-08 20:43 | 45.13887 | 7.64559 | 1965 ft | 164 kts | 2° |
| 2026-05-08 20:43 | 45.15023 | 7.64633 | 1736 ft | 163 kts | 2° |
| 2026-05-08 20:44 | 45.16150 | 7.64705 | 1517 ft | 162 kts | 2° |
| 2026-05-08 20:44 | 45.17259 | 7.64778 | 1310 ft | 160 kts | 3° |
| 2026-05-08 20:44 | 45.18368 | 7.64858 | 1111 ft | 159 kts | 2° |
| 2026-05-08 20:44 | 45.19430 | 7.64920 | 977 ft | 140 kts | 2° |
| 2026-05-08 20:45 | 45.20162 | 7.64970 | 978 ft | 40 kts | 3° |
| 2026-05-08 20:45 | 45.20226 | 7.64975 | 980 ft | 9 kts | 3° |
| 2026-05-08 20:45 | 45.20237 | 7.64976 | 978 ft | 7 kts | 2° |
| 2026-05-08 20:45 | 45.20350 | 7.64983 | 982 ft | 24 kts | 2° |
| 2026-05-08 20:46 | 45.20553 | 7.64998 | 986 ft | 34 kts | 359° |
| 2026-05-08 20:46 | 45.20698 | 7.64994 | 988 ft | 25 kts | 1° |
| 2026-05-08 20:46 | 45.20793 | 7.64999 | 989 ft | 6 kts | 5° |
| 2026-05-08 20:46 | 45.20849 | 7.64969 | 993 ft | 3 kts | 324° |
| 2026-05-08 20:47 | 45.20872 | 7.64938 | 994 ft | 3 kts | 290° |
| 2026-05-08 20:47 | 45.20879 | 7.64910 | 991 ft | 0 kts | 275° |
| 2026-05-08 20:47 | 45.20880 | 7.64881 | 991 ft | 0 kts | 273° |
| 2026-05-08 20:48 | 45.20870 | 7.64801 | 994 ft | 9 kts | 227° |
| 2026-05-08 20:48 | 45.20860 | 7.64788 | 991 ft | 6 kts | 225° |
| 2026-05-08 20:48 | 45.20832 | 7.64756 | 994 ft | 7 kts | 204° |
| 2026-05-08 20:49 | 45.20737 | 7.64742 | 990 ft | 18 kts | 180° |
| 2026-05-08 20:49 | 45.20634 | 7.64729 | 989 ft | 0 kts | 164° |
| 2026-05-08 20:49 | 45.20594 | 7.64741 | 989 ft | 1 kts | 185° |
| 2026-05-08 20:49 | 45.20508 | 7.64731 | 985 ft | 18 kts | 192° |
| 2026-05-08 20:50 | 45.20465 | 7.64720 | 985 ft | 5 kts | 178° |
| 2026-05-08 20:50 | 45.20347 | 7.64719 | 981 ft | 26 kts | 191° |
| 2026-05-08 20:50 | 45.20281 | 7.64704 | 985 ft | 17 kts | 184° |
| 2026-05-08 20:50 | 45.20162 | 7.64704 | 968 ft | 9 kts | 187° |
| 2026-05-08 20:51 | 45.20106 | 7.64698 | 968 ft | 8 kts | 166° |
| 2026-05-08 20:51 | 45.20053 | 7.64683 | 965 ft | 0 kts | 220° |
| 2026-05-08 20:51 | 45.20025 | 7.64685 | 968 ft | 12 kts | 176° |
| 2026-05-08 20:51 | 45.19879 | 7.64685 | 958 ft | 10 kts | 200° |
| 2026-05-08 20:52 | 45.19820 | 7.64676 | 960 ft | 18 kts | 192° |
| 2026-05-08 20:52 | 45.19722 | 7.64692 | 961 ft | 11 kts | 193° |
| 2026-05-08 20:52 | 45.19696 | 7.64693 | 959 ft | 12 kts | 178° |
| 2026-05-08 20:52 | 45.19641 | 7.64695 | 957 ft | 12 kts | 182° |
| 2026-05-08 20:53 | 45.19613 | 7.64653 | 958 ft | 0 kts | 274° |
| 2026-05-08 20:53 | 45.19616 | 7.64619 | 961 ft | 3 kts | 266° |
| 2026-05-08 20:53 | 45.19616 | 7.64588 | 961 ft | 0 kts | 274° |